createdAt,value
2019-04-30T00:05:09.948Z,95.00
2019-04-30T00:07:41.505Z,94.30
2019-04-30T00:10:55.430Z,94.80
2019-04-30T00:13:27.709Z,95.50
2019-04-30T00:18:58.157Z,96.20
2019-04-30T00:21:29.102Z,95.80
2019-04-30T00:24:00.816Z,96.00
2019-04-30T00:26:39.868Z,95.40
2019-04-30T00:29:19.096Z,94.60
2019-04-30T00:31:57.681Z,93.90
2019-04-30T00:34:30.802Z,93.60
2019-04-30T00:37:14.045Z,93.20
2019-04-30T00:39:50.687Z,93.80
2019-04-30T00:42:23.889Z,95.20
2019-04-30T00:44:51.548Z,92.80
2019-04-30T00:47:22.801Z,93.00
2019-04-30T00:50:00.189Z,92.00
2019-04-30T00:52:35.196Z,90.50
2019-04-30T00:55:12.134Z,91.20
2019-04-30T00:57:44.518Z,92.00
2019-04-30T01:00:25.944Z,92.00
2019-04-30T01:03:08.366Z,93.10
2019-04-30T01:05:39.706Z,92.40
2019-04-30T01:08:15.388Z,91.50
2019-04-30T01:10:55.634Z,90.30
2019-04-30T01:13:23.833Z,90.20
2019-04-30T01:15:58.663Z,88.70
2019-04-30T01:18:32.130Z,86.70
2019-04-30T01:21:06.917Z,87.10
2019-04-30T01:23:42.545Z,85.80
2019-04-30T01:26:18.849Z,86.70
2019-04-30T01:28:58.507Z,86.90
2019-04-30T01:31:37.554Z,86.00
2019-04-30T01:34:10.388Z,86.00
2019-04-30T01:36:43.504Z,88.00
2019-04-30T01:39:12.705Z,90.80
2019-04-30T01:41:43.842Z,90.80
2019-04-30T01:44:19.381Z,91.10
2019-04-30T01:46:52.122Z,91.10
2019-04-30T01:49:25.729Z,90.50
2019-04-30T01:51:59.304Z,86.70
2019-04-30T01:54:30.368Z,86.50
2019-04-30T01:57:03.852Z,86.80
2019-04-30T01:59:54.143Z,90.30
2019-04-30T02:02:28.625Z,88.70
2019-04-30T02:05:03.058Z,86.20
2019-04-30T02:07:38.844Z,86.90
2019-04-30T02:10:14.531Z,85.60
2019-04-30T02:12:50.710Z,88.70
2019-04-30T02:15:29.677Z,88.50
2019-04-30T02:18:02.458Z,86.60
2019-04-30T02:20:38.354Z,86.00
2019-04-30T02:23:16.626Z,90.90
2019-04-30T02:25:49.038Z,87.90
2019-04-30T02:28:24.493Z,84.40
2019-04-30T02:31:00.423Z,82.60
2019-04-30T02:33:31.500Z,82.40
2019-04-30T02:36:19.986Z,83.60
2019-04-30T02:39:02.284Z,85.00
2019-04-30T02:41:41.115Z,85.80
2019-04-30T02:44:13.360Z,85.50
2019-04-30T02:46:46.079Z,84.20
2019-04-30T02:49:20.734Z,83.70
2019-04-30T02:51:53.269Z,82.30
2019-04-30T02:54:31.322Z,81.20
2019-04-30T02:57:02.865Z,83.50
2019-04-30T02:59:40.129Z,85.50
2019-04-30T03:02:11.747Z,84.20
2019-04-30T03:04:46.137Z,83.10
2019-04-30T03:07:19.276Z,84.80
2019-04-30T03:09:49.989Z,83.60
2019-04-30T03:12:20.597Z,84.60
2019-04-30T03:14:52.961Z,86.90
2019-04-30T03:17:46.417Z,85.60
2019-04-30T03:20:31.131Z,85.40
2019-04-30T03:23:02.176Z,83.20
2019-04-30T03:25:29.885Z,84.20
2019-04-30T03:28:04.432Z,88.30
2019-04-30T03:30:33.828Z,87.30
2019-04-30T03:33:03.219Z,83.70
2019-04-30T03:35:41.632Z,87.30
2019-04-30T03:38:10.453Z,85.50
2019-04-30T03:40:40.975Z,84.40
2019-04-30T03:43:14.090Z,83.60
2019-04-30T03:45:46.617Z,86.00
2019-04-30T03:48:21.191Z,82.30
2019-04-30T03:50:56.738Z,80.60
2019-04-30T03:53:24.546Z,80.50
2019-04-30T03:56:01.299Z,80.30
2019-04-30T03:58:39.516Z,83.20
2019-04-30T04:01:14.673Z,85.00
2019-04-30T04:04:10.035Z,83.00
2019-04-30T04:06:49.331Z,87.60
2019-04-30T04:09:30.220Z,84.50
2019-04-30T04:12:20.382Z,84.30
2019-04-30T04:14:51.330Z,83.50
2019-04-30T04:17:23.962Z,82.70
2019-04-30T04:19:56.234Z,82.70
2019-04-30T04:22:30.313Z,83.60
2019-04-30T04:25:01.221Z,85.10
2019-04-30T04:27:34.056Z,84.80
2019-04-30T04:30:11.203Z,84.30
2019-04-30T04:32:41.946Z,83.10
2019-04-30T04:35:13.118Z,81.90
2019-04-30T04:37:45.336Z,82.10
2019-04-30T04:40:14.703Z,84.50
2019-04-30T04:42:49.290Z,85.10
2019-04-30T04:45:21.713Z,84.80
2019-04-30T04:47:52.209Z,85.30
2019-04-30T04:50:26.359Z,86.70
2019-04-30T04:53:01.729Z,85.50
2019-04-30T04:55:34.228Z,86.70
2019-04-30T04:58:05.233Z,88.30
2019-04-30T05:00:40.973Z,87.70
2019-04-30T05:03:16.823Z,87.50
2019-04-30T05:05:52.809Z,89.50
2019-04-30T05:08:30.159Z,90.00
2019-04-30T05:11:02.428Z,91.50
2019-04-30T05:13:35.235Z,90.70
2019-04-30T05:16:05.120Z,91.30
2019-04-30T05:18:42.062Z,92.10
2019-04-30T05:21:18.852Z,90.80
2019-04-30T05:23:53.292Z,91.00
2019-04-30T05:26:34.035Z,90.40
2019-04-30T05:29:09.564Z,91.80
2019-04-30T05:31:44.397Z,91.60
2019-04-30T05:34:23.839Z,91.80
2019-04-30T05:36:55.789Z,92.10
2019-04-30T05:39:32.625Z,90.80
2019-04-30T05:42:08.782Z,91.80
2019-04-30T05:44:43.867Z,92.70
2019-04-30T05:47:19.376Z,93.30
2019-04-30T05:49:50.977Z,92.60
2019-04-30T05:52:21.420Z,91.60
2019-04-30T05:54:52.627Z,90.40
2019-04-30T05:57:24.893Z,90.90
2019-04-30T05:59:58.470Z,88.70
2019-04-30T06:02:33.595Z,88.10
2019-04-30T06:05:00.752Z,90.30
2019-04-30T06:07:39.661Z,87.80
2019-04-30T06:10:16.523Z,88.70
2019-04-30T06:13:00.672Z,89.20
2019-04-30T06:15:35.466Z,88.70
2019-04-30T06:18:13.454Z,90.00
2019-04-30T06:20:39.310Z,86.50
2019-04-30T06:23:09.720Z,86.10
2019-04-30T06:25:55.642Z,88.00
2019-04-30T06:28:12.505Z,90.60
2019-04-30T06:30:49.691Z,90.40
2019-04-30T06:33:29.172Z,91.60
2019-04-30T06:36:03.027Z,91.00
2019-04-30T06:38:33.586Z,88.00
2019-04-30T06:41:11.595Z,89.60
2019-04-30T06:43:46.446Z,87.30
2019-04-30T06:46:22.508Z,85.50
2019-04-30T06:48:53.141Z,87.70
2019-04-30T06:51:30.606Z,86.50
2019-04-30T06:54:03.773Z,85.20
2019-04-30T06:56:39.927Z,84.20
2019-04-30T06:59:11.234Z,84.30
2019-04-30T07:02:19.711Z,83.40
2019-04-30T07:04:42.561Z,83.60
2019-04-30T07:07:36.366Z,84.10
2019-04-30T07:10:17.954Z,80.20
2019-04-30T07:15:56.319Z,75.00
2019-04-30T07:18:32.772Z,68.40
2019-04-30T07:21:15.472Z,70.50
2019-04-30T07:24:02.535Z,71.40
2019-04-30T07:26:33.769Z,72.10
2019-04-30T07:29:06.700Z,68.50
2019-04-30T07:31:40.410Z,69.70
2019-04-30T07:34:10.536Z,71.30
2019-04-30T07:36:48.418Z,72.50
2019-04-30T07:39:13.835Z,70.70
2019-04-30T07:41:44.662Z,70.60
2019-04-30T07:44:31.054Z,70.30
2019-04-30T07:46:50.947Z,64.00
2019-04-30T07:49:46.989Z,66.00
2019-04-30T07:52:07.116Z,66.90
2019-04-30T07:54:39.577Z,66.70
2019-04-30T07:57:13.115Z,65.10
2019-04-30T07:59:55.386Z,62.80
2019-04-30T08:02:36.039Z,61.50
2019-04-30T08:05:15.197Z,61.80
2019-04-30T08:07:48.816Z,62.30
2019-04-30T08:10:21.987Z,62.70
2019-04-30T08:12:52.223Z,63.90
2019-04-30T08:15:23.056Z,65.00
2019-04-30T08:18:03.588Z,60.70
2019-04-30T08:20:33.374Z,62.00
2019-04-30T08:23:15.624Z,61.60
2019-04-30T08:25:39.470Z,61.20
2019-04-30T08:28:14.669Z,60.30
2019-04-30T08:30:48.888Z,60.00
2019-04-30T08:33:20.083Z,60.30
2019-04-30T08:35:50.164Z,58.70
2019-04-30T08:38:23.769Z,60.40
2019-04-30T08:40:58.122Z,59.60
2019-04-30T08:43:31.130Z,60.00
2019-04-30T08:46:03.096Z,58.90
2019-04-30T08:48:46.126Z,57.90
2019-04-30T08:51:13.684Z,59.30
2019-04-30T08:53:44.273Z,59.80
2019-04-30T08:56:16.695Z,58.60
2019-04-30T08:58:48.941Z,60.70
2019-04-30T09:01:19.845Z,61.50
2019-04-30T09:03:51.194Z,62.00
2019-04-30T09:06:29.496Z,58.20
2019-04-30T09:09:10.780Z,58.40
2019-04-30T09:11:51.817Z,57.70
2019-04-30T09:14:15.267Z,58.20
2019-04-30T09:16:51.386Z,60.60
2019-04-30T09:19:21.591Z,61.80
2019-04-30T09:21:58.930Z,61.20
2019-04-30T09:24:31.136Z,62.00
2019-04-30T09:27:00.758Z,59.70
2019-04-30T09:29:30.840Z,58.80
2019-04-30T09:32:04.512Z,55.60
2019-04-30T09:34:40.455Z,55.80
2019-04-30T09:37:13.080Z,57.20
2019-04-30T09:39:46.567Z,59.70
2019-04-30T09:42:20.041Z,59.80
2019-04-30T09:44:54.239Z,60.60
2019-04-30T09:47:25.972Z,61.80
2019-04-30T09:49:59.600Z,60.70
2019-04-30T09:52:30.854Z,58.90
2019-04-30T09:55:03.075Z,57.70
2019-04-30T09:57:43.797Z,57.60
2019-04-30T10:00:19.432Z,58.30
2019-04-30T10:02:53.362Z,55.90
2019-04-30T10:05:31.541Z,53.30
2019-04-30T10:08:13.268Z,53.40
2019-04-30T10:10:50.547Z,56.40
2019-04-30T10:13:27.353Z,57.50
2019-04-30T10:16:05.599Z,57.10
2019-04-30T10:18:37.819Z,57.40
2019-04-30T10:21:11.188Z,55.60
2019-04-30T10:23:42.103Z,53.20
2019-04-30T10:26:13.431Z,53.30
2019-04-30T10:28:44.424Z,53.60
2019-04-30T10:31:18.745Z,54.80
2019-04-30T10:34:01.927Z,56.70
2019-04-30T10:36:34.827Z,55.60
2019-04-30T10:39:05.249Z,54.40
2019-04-30T10:41:35.445Z,52.40
2019-04-30T10:44:08.748Z,52.70
2019-04-30T10:46:41.322Z,50.60
2019-04-30T10:49:16.107Z,51.00
2019-04-30T10:51:53.960Z,51.90
2019-04-30T10:54:26.282Z,52.60
2019-04-30T10:57:05.071Z,55.10
2019-04-30T10:59:41.782Z,54.70
2019-04-30T11:02:20.297Z,54.80
2019-04-30T11:04:50.698Z,54.00
2019-04-30T11:07:24.516Z,52.90
2019-04-30T11:09:58.679Z,51.40
2019-04-30T11:12:29.945Z,52.10
2019-04-30T11:15:06.264Z,52.90
2019-04-30T11:17:39.066Z,53.90
2019-04-30T11:20:12.880Z,54.10
2019-04-30T11:22:43.630Z,54.20
2019-04-30T11:25:14.546Z,52.90
2019-04-30T11:27:47.120Z,51.30
2019-04-30T11:30:22.391Z,51.60
2019-04-30T11:32:48.263Z,51.60
2019-04-30T11:35:20.748Z,51.40
2019-04-30T11:37:51.278Z,53.00
2019-04-30T11:40:34.433Z,52.70
2019-04-30T11:43:05.040Z,52.20
2019-04-30T11:45:52.372Z,51.30
2019-04-30T11:48:22.785Z,50.70
2019-04-30T11:50:54.056Z,50.80
2019-04-30T11:53:27.851Z,50.60
2019-04-30T11:55:54.928Z,50.70
2019-04-30T11:58:33.270Z,49.90
2019-04-30T12:01:07.133Z,49.00
2019-04-30T12:03:35.985Z,49.20
2019-04-30T12:06:09.293Z,49.80
2019-04-30T12:08:55.890Z,50.40
2019-04-30T12:11:26.797Z,50.10
2019-04-30T12:13:56.680Z,50.30
2019-04-30T12:16:26.229Z,47.60
2019-04-30T12:19:00.441Z,50.60
2019-04-30T12:21:29.334Z,50.50
2019-04-30T12:24:00.609Z,50.10
2019-04-30T12:26:32.706Z,49.40
2019-04-30T12:29:04.394Z,49.30
2019-04-30T12:31:33.853Z,49.10
2019-04-30T12:34:05.223Z,48.60
2019-04-30T12:36:36.560Z,47.90
2019-04-30T12:39:09.813Z,46.90
2019-04-30T12:41:46.104Z,47.80
2019-04-30T12:44:16.901Z,47.80
2019-04-30T12:47:32.618Z,47.70
2019-04-30T12:49:52.179Z,46.80
2019-04-30T12:55:34.533Z,48.00
2019-04-30T12:58:06.697Z,48.40
2019-04-30T13:00:56.554Z,47.10
2019-04-30T13:03:34.101Z,46.90
2019-04-30T13:06:04.903Z,48.40
2019-04-30T13:08:37.324Z,47.90
2019-04-30T13:11:06.917Z,47.00
2019-04-30T13:13:37.021Z,47.60
2019-04-30T13:16:15.107Z,48.00
2019-04-30T13:18:46.723Z,46.30
2019-04-30T13:21:18.370Z,47.10
2019-04-30T13:23:52.140Z,46.40
2019-04-30T13:28:15.633Z,46.80
2019-04-30T13:30:50.031Z,47.80
2019-04-30T13:33:39.226Z,46.90
2019-04-30T13:36:11.183Z,46.10
2019-04-30T13:38:49.663Z,46.10
2019-04-30T13:41:22.398Z,46.30
2019-04-30T13:43:55.901Z,46.20
2019-04-30T13:46:28.469Z,46.50
2019-04-30T13:49:07.024Z,45.70
2019-04-30T13:51:39.041Z,46.70
2019-04-30T13:54:12.692Z,46.20
2019-04-30T13:56:44.266Z,46.40
2019-04-30T13:59:14.546Z,45.80
2019-04-30T14:01:44.473Z,46.50
2019-04-30T14:04:38.562Z,47.60
2019-04-30T14:07:08.750Z,48.40
2019-04-30T14:09:37.863Z,47.80
2019-04-30T14:12:08.106Z,47.50
2019-04-30T14:14:41.610Z,46.70
2019-04-30T14:17:11.207Z,47.50
2019-04-30T14:19:41.822Z,47.50
2019-04-30T14:22:11.803Z,48.00
2019-04-30T14:24:41.282Z,48.50
2019-04-30T14:27:20.263Z,49.10
2019-04-30T14:30:04.465Z,48.60
2019-04-30T14:32:39.624Z,47.90
2019-04-30T14:35:12.279Z,48.40
2019-04-30T14:38:00.158Z,49.20
2019-04-30T14:40:29.840Z,49.10
2019-04-30T14:43:09.631Z,49.70
2019-04-30T14:46:01.136Z,49.20
2019-04-30T14:48:53.665Z,49.00
2019-04-30T14:51:27.479Z,48.80
2019-04-30T14:54:09.455Z,49.20
2019-04-30T14:56:55.027Z,49.40
2019-04-30T14:59:42.537Z,48.70
2019-04-30T15:02:35.726Z,48.80
2019-04-30T15:05:13.992Z,49.60
2019-04-30T15:07:47.523Z,49.40
2019-04-30T15:10:24.345Z,49.40
2019-04-30T15:12:54.695Z,48.40
2019-04-30T15:15:26.929Z,49.00
2019-04-30T15:17:59.279Z,49.60
2019-04-30T15:20:39.833Z,48.90
2019-04-30T15:23:18.855Z,49.00
2019-04-30T15:28:43.740Z,49.00
2019-04-30T15:31:16.174Z,48.80
2019-04-30T15:34:01.766Z,48.20
2019-04-30T15:36:26.014Z,48.20
2019-04-30T15:39:02.756Z,48.20
2019-04-30T15:41:40.188Z,47.90
2019-04-30T15:44:13.263Z,47.60
2019-04-30T15:46:53.650Z,47.80
2019-04-30T15:49:24.971Z,48.20
2019-04-30T15:52:01.270Z,49.70
2019-04-30T15:54:32.419Z,50.30
2019-04-30T15:57:02.812Z,50.80
2019-04-30T15:59:33.293Z,51.60
2019-04-30T16:02:12.789Z,50.80
2019-04-30T16:04:41.093Z,51.30
2019-04-30T16:07:16.906Z,51.20
2019-04-30T16:10:05.221Z,50.80
2019-04-30T16:12:40.028Z,50.20
2019-04-30T16:15:10.309Z,50.00
2019-04-30T16:17:42.292Z,49.90
2019-04-30T16:20:13.896Z,50.00
2019-04-30T16:22:45.585Z,49.70
2019-04-30T16:25:27.657Z,49.80
2019-04-30T16:28:03.269Z,50.30
2019-04-30T16:30:36.186Z,50.60
2019-04-30T16:33:10.422Z,51.00
2019-04-30T16:35:43.004Z,51.10
2019-04-30T16:38:15.452Z,51.20
2019-04-30T16:40:52.594Z,51.80
2019-04-30T16:43:38.772Z,52.00
2019-04-30T16:46:14.919Z,51.50
2019-04-30T16:48:48.823Z,52.10
2019-04-30T16:51:24.430Z,51.80
2019-04-30T16:53:55.225Z,51.40
2019-04-30T16:56:28.689Z,51.60
2019-04-30T16:59:03.843Z,51.20
2019-04-30T17:01:38.568Z,51.60
2019-04-30T17:04:16.881Z,51.90
2019-04-30T17:07:11.992Z,51.80
2019-04-30T17:10:09.060Z,52.60
2019-04-30T17:12:55.970Z,51.80
2019-04-30T17:15:30.465Z,51.80
2019-04-30T17:18:00.517Z,52.40
2019-04-30T17:20:38.944Z,52.60
2019-04-30T17:23:19.347Z,52.20
2019-04-30T17:25:52.662Z,52.30
2019-04-30T17:28:28.946Z,52.60
2019-04-30T17:31:06.111Z,52.40
2019-04-30T17:33:39.277Z,52.30
2019-04-30T17:36:13.942Z,52.10
2019-04-30T17:38:47.435Z,51.80
2019-04-30T17:41:18.586Z,52.20
2019-04-30T17:43:51.128Z,52.20
2019-04-30T17:46:25.785Z,51.30
2019-04-30T17:48:59.285Z,53.10
2019-04-30T17:51:36.956Z,53.00
2019-04-30T17:54:17.662Z,50.80
2019-04-30T17:56:49.388Z,53.10
2019-04-30T17:59:20.305Z,53.10
2019-04-30T18:01:59.629Z,53.50
2019-04-30T18:04:36.554Z,53.60
2019-04-30T18:07:10.125Z,53.80
2019-04-30T18:12:52.122Z,53.70
2019-04-30T18:15:36.194Z,53.70
2019-04-30T18:18:18.044Z,54.00
2019-04-30T18:21:27.372Z,53.90
2019-04-30T18:24:19.517Z,53.90
2019-04-30T18:26:53.451Z,54.60
2019-04-30T18:29:31.277Z,54.60
2019-04-30T18:32:09.346Z,54.40
2019-04-30T18:34:59.009Z,54.20
2019-04-30T18:37:40.759Z,54.10
2019-04-30T18:40:20.971Z,54.40
2019-04-30T18:42:59.485Z,54.50
2019-04-30T18:45:36.547Z,55.00
2019-04-30T18:48:11.429Z,55.10
2019-04-30T18:50:52.249Z,55.10
2019-04-30T18:53:36.807Z,55.10
2019-04-30T18:56:14.676Z,55.50
2019-04-30T18:58:50.601Z,55.40
2019-04-30T19:01:30.954Z,55.90
2019-04-30T19:04:09.144Z,56.40
2019-04-30T19:06:39.425Z,56.70
2019-04-30T19:09:40.087Z,57.40
2019-04-30T19:12:20.927Z,58.00
2019-04-30T19:14:55.451Z,58.60
2019-04-30T19:20:41.386Z,60.80
2019-04-30T19:23:19.050Z,60.50
2019-04-30T19:26:45.188Z,64.60
2019-04-30T19:29:23.117Z,63.40
2019-04-30T19:31:59.415Z,63.40
2019-04-30T19:34:39.411Z,63.30
2019-04-30T19:37:40.034Z,62.80
2019-04-30T19:43:02.652Z,61.90
2019-04-30T19:45:40.218Z,62.10
2019-04-30T19:48:16.029Z,62.80
2019-04-30T19:50:53.424Z,63.20
2019-04-30T19:56:44.637Z,63.20
2019-04-30T19:59:14.145Z,63.10
2019-04-30T20:01:51.765Z,64.00
2019-04-30T20:07:22.919Z,63.20
2019-04-30T20:10:03.210Z,63.40
2019-04-30T20:12:33.548Z,63.70
2019-04-30T20:15:19.391Z,64.30
2019-04-30T20:18:05.410Z,64.40
2019-04-30T20:20:34.594Z,64.60
2019-04-30T20:23:11.794Z,64.70
2019-04-30T20:26:26.855Z,64.60
2019-04-30T20:29:10.020Z,65.30
2019-04-30T20:31:48.705Z,66.20
2019-04-30T20:34:25.745Z,66.00
2019-04-30T20:37:04.469Z,65.70
2019-04-30T20:39:51.680Z,65.60
2019-04-30T20:42:23.651Z,65.70
2019-04-30T20:44:58.901Z,65.70
2019-04-30T20:47:31.432Z,65.70
2019-04-30T20:50:02.550Z,65.20
2019-04-30T20:52:34.649Z,65.60
2019-04-30T20:55:35.029Z,65.80
2019-04-30T20:58:09.563Z,65.60
2019-04-30T21:01:00.517Z,66.20
2019-04-30T21:03:25.071Z,66.20
2019-04-30T21:06:00.671Z,66.20
2019-04-30T21:08:36.429Z,66.40
2019-04-30T21:11:11.099Z,66.60
2019-04-30T21:13:49.122Z,66.80
2019-04-30T21:16:21.936Z,66.70
2019-04-30T21:18:55.295Z,66.40
2019-04-30T21:21:28.771Z,66.30
2019-04-30T21:23:59.961Z,65.70
2019-04-30T21:26:33.538Z,65.50
2019-04-30T21:29:13.290Z,65.00
2019-04-30T21:31:43.795Z,65.20
2019-04-30T21:34:32.033Z,65.40
2019-04-30T21:39:58.520Z,65.00
2019-04-30T21:42:35.674Z,64.80
2019-04-30T21:45:08.038Z,64.90
2019-04-30T21:47:56.012Z,65.00
2019-04-30T21:50:21.515Z,64.90
2019-04-30T21:53:06.666Z,64.60
2019-04-30T21:59:24.480Z,66.50
2019-04-30T22:02:02.834Z,67.10
2019-04-30T22:04:34.472Z,67.00
2019-04-30T22:07:05.939Z,66.60
2019-04-30T22:09:40.515Z,65.80
2019-04-30T22:12:10.304Z,66.40
2019-04-30T22:14:43.298Z,65.50
2019-04-30T22:17:16.361Z,65.80
2019-04-30T22:19:49.101Z,65.30
2019-04-30T22:22:21.813Z,64.80
2019-04-30T22:25:01.574Z,65.00
2019-04-30T22:27:34.845Z,65.60
2019-04-30T22:30:03.370Z,66.20
2019-04-30T22:32:36.720Z,65.80
2019-04-30T22:35:14.634Z,64.90
2019-04-30T22:37:48.738Z,64.60
2019-04-30T22:40:21.736Z,64.60
2019-04-30T23:00:09.709Z,65.20
2019-04-30T23:02:44.352Z,65.20
2019-04-30T23:05:26.471Z,65.70
2019-04-30T23:07:58.677Z,65.70
2019-04-30T23:17:31.183Z,64.30
2019-04-30T23:20:06.463Z,64.30
2019-04-30T23:22:47.105Z,65.00
2019-04-30T23:25:22.034Z,63.20
2019-04-30T23:27:56.352Z,63.80
2019-04-30T23:30:44.056Z,63.50
2019-04-30T23:36:11.287Z,63.30
2019-04-30T23:38:36.452Z,63.90
2019-04-30T23:41:30.178Z,63.80
2019-04-30T23:43:49.763Z,64.00
2019-04-30T23:46:28.282Z,65.20
2019-04-30T23:49:01.962Z,63.30
2019-04-30T23:51:32.982Z,64.00
2019-04-30T23:54:06.292Z,64.00
